Cooksville, Illinois
Current Conditions -  °F | °C
As of 6:14 PM on Monday 22 Dec 2014 (Local Time) from KBMI Reporting Station
Light Rain Light Rain  
Wind Chill: 38°   Ceiling: 200
Heat Index: 45°   Visibility: 3mi
Dew Point: 45°   Wind: 15mph
Humidity: 100%   Direction: 140°SE
Pressure: 29.6"   Gusts: NA
Location:  40.54°N, 88.72°W
Report Text: KBMI 230014Z 14013KT 3SM -RA BR OVC002 07/07 A2960 RMK AO2 P0001
Loading
Personal Weather Stations






























Interactive Weather Map New forecast layout! Learn more

10-Day Weather Forecast

Advertisements
Track Severe Weather on mobile